sensor_id;sensor_type;location;lat;lon;timestamp;P1;durP1;ratioP1;P2;durP2;ratioP2
9675;SDS011;4876;42.656;23.292;2023-08-06T00:01:45;5.07;;;4.13;;
9675;SDS011;4876;42.656;23.292;2023-08-06T00:04:12;7.57;;;4.33;;
9675;SDS011;4876;42.656;23.292;2023-08-06T00:06:38;5.93;;;4.20;;
9675;SDS011;4876;42.656;23.292;2023-08-06T00:09:07;8.13;;;4.90;;
9675;SDS011;4876;42.656;23.292;2023-08-06T00:11:33;6.37;;;4.60;;
9675;SDS011;4876;42.656;23.292;2023-08-06T00:14:00;6.30;;;4.17;;
9675;SDS011;4876;42.656;23.292;2023-08-06T00:16:27;8.17;;;4.37;;
9675;SDS011;4876;42.656;23.292;2023-08-06T00:18:54;5.20;;;4.07;;
9675;SDS011;4876;42.656;23.292;2023-08-06T00:21:21;8.70;;;4.80;;
9675;SDS011;4876;42.656;23.292;2023-08-06T00:23:47;9.30;;;5.30;;
9675;SDS011;4876;42.656;23.292;2023-08-06T00:26:15;6.20;;;4.50;;
9675;SDS011;4876;42.656;23.292;2023-08-06T00:28:42;8.57;;;4.60;;
9675;SDS011;4876;42.656;23.292;2023-08-06T00:31:09;7.83;;;4.50;;
9675;SDS011;4876;42.656;23.292;2023-08-06T00:33:36;6.77;;;4.80;;
9675;SDS011;4876;42.656;23.292;2023-08-06T00:36:02;8.97;;;4.17;;
9675;SDS011;4876;42.656;23.292;2023-08-06T00:38:29;10.63;;;4.10;;
9675;SDS011;4876;42.656;23.292;2023-08-06T00:40:56;9.80;;;4.53;;
9675;SDS011;4876;42.656;23.292;2023-08-06T00:43:24;5.33;;;4.23;;
9675;SDS011;4876;42.656;23.292;2023-08-06T00:45:51;4.77;;;4.33;;
9675;SDS011;4876;42.656;23.292;2023-08-06T00:48:18;5.60;;;4.47;;
9675;SDS011;4876;42.656;23.292;2023-08-06T00:50:45;6.33;;;4.53;;
9675;SDS011;4876;42.656;23.292;2023-08-06T00:53:12;7.43;;;4.40;;
9675;SDS011;4876;42.656;23.292;2023-08-06T00:55:39;5.27;;;4.07;;
9675;SDS011;4876;42.656;23.292;2023-08-06T00:58:06;6.20;;;4.17;;
9675;SDS011;4876;42.656;23.292;2023-08-06T01:00:34;4.40;;;4.00;;
9675;SDS011;4876;42.656;23.292;2023-08-06T01:03:02;10.20;;;9.10;;
9675;SDS011;4876;42.656;23.292;2023-08-06T01:05:28;12.90;;;11.47;;
9675;SDS011;4876;42.656;23.292;2023-08-06T01:08:00;15.33;;;11.83;;
9675;SDS011;4876;42.656;23.292;2023-08-06T01:10:40;9.53;;;8.27;;
9675;SDS011;4876;42.656;23.292;2023-08-06T01:13:20;13.27;;;8.67;;
9675;SDS011;4876;42.656;23.292;2023-08-06T01:15:54;11.43;;;9.37;;
9675;SDS011;4876;42.656;23.292;2023-08-06T01:18:22;12.23;;;8.87;;
9675;SDS011;4876;42.656;23.292;2023-08-06T01:20:51;9.40;;;8.40;;
9675;SDS011;4876;42.656;23.292;2023-08-06T01:23:18;13.27;;;11.30;;
9675;SDS011;4876;42.656;23.292;2023-08-06T01:25:47;15.73;;;13.43;;
9675;SDS011;4876;42.656;23.292;2023-08-06T01:28:23;16.00;;;12.67;;
9675;SDS011;4876;42.656;23.292;2023-08-06T01:30:57;18.77;;;14.63;;
9675;SDS011;4876;42.656;23.292;2023-08-06T01:33:28;18.67;;;13.60;;
9675;SDS011;4876;42.656;23.292;2023-08-06T01:35:59;16.23;;;11.77;;
9675;SDS011;4876;42.656;23.292;2023-08-06T01:38:27;13.03;;;10.70;;
9675;SDS011;4876;42.656;23.292;2023-08-06T01:40:54;8.33;;;7.50;;
9675;SDS011;4876;42.656;23.292;2023-08-06T01:43:21;9.90;;;6.67;;
9675;SDS011;4876;42.656;23.292;2023-08-06T01:45:47;8.90;;;6.13;;
9675;SDS011;4876;42.656;23.292;2023-08-06T01:48:14;7.07;;;5.83;;
9675;SDS011;4876;42.656;23.292;2023-08-06T01:50:41;8.07;;;5.90;;
9675;SDS011;4876;42.656;23.292;2023-08-06T01:53:10;7.77;;;5.20;;
9675;SDS011;4876;42.656;23.292;2023-08-06T01:55:37;10.83;;;5.60;;
9675;SDS011;4876;42.656;23.292;2023-08-06T01:58:04;8.30;;;5.30;;
9675;SDS011;4876;42.656;23.292;2023-08-06T02:00:30;5.57;;;5.03;;
9675;SDS011;4876;42.656;23.292;2023-08-06T02:02:57;6.23;;;4.73;;
9675;SDS011;4876;42.656;23.292;2023-08-06T02:05:24;7.17;;;5.03;;
9675;SDS011;4876;42.656;23.292;2023-08-06T02:07:51;5.50;;;4.27;;
9675;SDS011;4876;42.656;23.292;2023-08-06T02:10:19;5.07;;;4.47;;
9675;SDS011;4876;42.656;23.292;2023-08-06T02:12:46;5.30;;;4.80;;
9675;SDS011;4876;42.656;23.292;2023-08-06T02:15:12;5.80;;;5.17;;
9675;SDS011;4876;42.656;23.292;2023-08-06T02:17:39;5.20;;;4.50;;
9675;SDS011;4876;42.656;23.292;2023-08-06T02:20:06;5.43;;;4.73;;
9675;SDS011;4876;42.656;23.292;2023-08-06T02:22:34;7.83;;;4.63;;
9675;SDS011;4876;42.656;23.292;2023-08-06T02:25:01;16.63;;;6.63;;
9675;SDS011;4876;42.656;23.292;2023-08-06T02:27:29;5.67;;;4.30;;
9675;SDS011;4876;42.656;23.292;2023-08-06T02:29:56;7.63;;;4.90;;
9675;SDS011;4876;42.656;23.292;2023-08-06T02:32:22;7.00;;;4.70;;
9675;SDS011;4876;42.656;23.292;2023-08-06T02:34:49;5.03;;;4.27;;
9675;SDS011;4876;42.656;23.292;2023-08-06T02:37:16;5.50;;;4.47;;
9675;SDS011;4876;42.656;23.292;2023-08-06T02:39:43;7.03;;;5.30;;
9675;SDS011;4876;42.656;23.292;2023-08-06T02:42:09;7.67;;;4.97;;
9675;SDS011;4876;42.656;23.292;2023-08-06T02:44:38;7.80;;;5.03;;
9675;SDS011;4876;42.656;23.292;2023-08-06T02:47:05;9.00;;;5.23;;
9675;SDS011;4876;42.656;23.292;2023-08-06T02:49:32;5.63;;;4.50;;
9675;SDS011;4876;42.656;23.292;2023-08-06T02:51:58;8.83;;;4.53;;
9675;SDS011;4876;42.656;23.292;2023-08-06T02:54:25;6.00;;;4.27;;
9675;SDS011;4876;42.656;23.292;2023-08-06T02:56:52;6.20;;;4.27;;
9675;SDS011;4876;42.656;23.292;2023-08-06T02:59:19;7.03;;;4.63;;
9675;SDS011;4876;42.656;23.292;2023-08-06T03:01:47;6.63;;;4.13;;
9675;SDS011;4876;42.656;23.292;2023-08-06T03:04:14;7.63;;;4.57;;
9675;SDS011;4876;42.656;23.292;2023-08-06T03:06:42;6.37;;;4.00;;
9675;SDS011;4876;42.656;23.292;2023-08-06T03:09:09;5.40;;;4.43;;
9675;SDS011;4876;42.656;23.292;2023-08-06T03:11:36;7.73;;;4.73;;
9675;SDS011;4876;42.656;23.292;2023-08-06T03:14:03;8.20;;;6.10;;
9675;SDS011;4876;42.656;23.292;2023-08-06T03:16:29;11.50;;;5.17;;
9675;SDS011;4876;42.656;23.292;2023-08-06T03:18:57;4.97;;;4.57;;
9675;SDS011;4876;42.656;23.292;2023-08-06T03:21:24;5.03;;;4.47;;
9675;SDS011;4876;42.656;23.292;2023-08-06T03:23:51;5.33;;;4.20;;
9675;SDS011;4876;42.656;23.292;2023-08-06T03:26:18;4.83;;;4.10;;
9675;SDS011;4876;42.656;23.292;2023-08-06T03:28:45;4.57;;;4.13;;
9675;SDS011;4876;42.656;23.292;2023-08-06T03:31:12;8.53;;;4.20;;
9675;SDS011;4876;42.656;23.292;2023-08-06T03:33:38;4.40;;;3.77;;
9675;SDS011;4876;42.656;23.292;2023-08-06T03:36:06;4.77;;;3.40;;
9675;SDS011;4876;42.656;23.292;2023-08-06T03:38:33;4.87;;;3.80;;
9675;SDS011;4876;42.656;23.292;2023-08-06T03:41:00;4.87;;;4.40;;
9675;SDS011;4876;42.656;23.292;2023-08-06T03:43:27;4.87;;;3.93;;
9675;SDS011;4876;42.656;23.292;2023-08-06T03:45:53;5.13;;;4.37;;
9675;SDS011;4876;42.656;23.292;2023-08-06T03:48:20;5.87;;;4.57;;
9675;SDS011;4876;42.656;23.292;2023-08-06T03:50:47;5.70;;;4.37;;
9675;SDS011;4876;42.656;23.292;2023-08-06T03:53:15;5.10;;;4.40;;
9675;SDS011;4876;42.656;23.292;2023-08-06T03:55:42;7.20;;;4.33;;
9675;SDS011;4876;42.656;23.292;2023-08-06T03:58:09;6.60;;;4.67;;
9675;SDS011;4876;42.656;23.292;2023-08-06T04:00:36;5.63;;;4.80;;
9675;SDS011;4876;42.656;23.292;2023-08-06T04:03:02;6.07;;;4.63;;
9675;SDS011;4876;42.656;23.292;2023-08-06T04:05:30;5.83;;;4.70;;
9675;SDS011;4876;42.656;23.292;2023-08-06T04:07:58;6.57;;;4.70;;
9675;SDS011;4876;42.656;23.292;2023-08-06T04:10:26;5.13;;;4.10;;
9675;SDS011;4876;42.656;23.292;2023-08-06T04:12:53;6.10;;;4.40;;
9675;SDS011;4876;42.656;23.292;2023-08-06T04:15:20;6.10;;;4.63;;
9675;SDS011;4876;42.656;23.292;2023-08-06T04:17:47;5.50;;;4.97;;
9675;SDS011;4876;42.656;23.292;2023-08-06T04:20:14;7.43;;;4.90;;
9675;SDS011;4876;42.656;23.292;2023-08-06T04:22:40;6.50;;;5.00;;
9675;SDS011;4876;42.656;23.292;2023-08-06T04:25:07;5.23;;;4.67;;
9675;SDS011;4876;42.656;23.292;2023-08-06T04:27:36;5.53;;;5.00;;
9675;SDS011;4876;42.656;23.292;2023-08-06T04:30:06;4.77;;;4.37;;
9675;SDS011;4876;42.656;23.292;2023-08-06T04:32:34;6.70;;;5.03;;
9675;SDS011;4876;42.656;23.292;2023-08-06T04:35:00;6.03;;;5.30;;
9675;SDS011;4876;42.656;23.292;2023-08-06T04:37:27;8.00;;;5.40;;
9675;SDS011;4876;42.656;23.292;2023-08-06T04:39:54;8.90;;;6.33;;
9675;SDS011;4876;42.656;23.292;2023-08-06T04:42:21;7.17;;;5.73;;
9675;SDS011;4876;42.656;23.292;2023-08-06T04:44:49;7.20;;;5.17;;
9675;SDS011;4876;42.656;23.292;2023-08-06T04:47:16;6.27;;;5.70;;
9675;SDS011;4876;42.656;23.292;2023-08-06T04:49:43;7.80;;;5.57;;
9675;SDS011;4876;42.656;23.292;2023-08-06T04:52:10;6.67;;;5.73;;
9675;SDS011;4876;42.656;23.292;2023-08-06T04:54:37;6.37;;;5.47;;
9675;SDS011;4876;42.656;23.292;2023-08-06T04:57:04;7.30;;;5.57;;
9675;SDS011;4876;42.656;23.292;2023-08-06T04:59:31;11.20;;;6.73;;
9675;SDS011;4876;42.656;23.292;2023-08-06T05:01:59;10.50;;;7.97;;
9675;SDS011;4876;42.656;23.292;2023-08-06T05:04:26;6.57;;;5.97;;
9675;SDS011;4876;42.656;23.292;2023-08-06T05:06:53;5.73;;;5.23;;
9675;SDS011;4876;42.656;23.292;2023-08-06T05:09:20;6.27;;;5.57;;
9675;SDS011;4876;42.656;23.292;2023-08-06T05:11:46;4.67;;;4.27;;
9675;SDS011;4876;42.656;23.292;2023-08-06T05:14:14;5.23;;;4.80;;
9675;SDS011;4876;42.656;23.292;2023-08-06T05:16:41;6.00;;;5.33;;
9675;SDS011;4876;42.656;23.292;2023-08-06T05:19:09;8.90;;;5.37;;
9675;SDS011;4876;42.656;23.292;2023-08-06T05:21:35;7.57;;;5.70;;
9675;SDS011;4876;42.656;23.292;2023-08-06T05:24:02;6.17;;;5.67;;
9675;SDS011;4876;42.656;23.292;2023-08-06T05:26:30;6.07;;;5.50;;
9675;SDS011;4876;42.656;23.292;2023-08-06T05:28:56;9.47;;;5.20;;
9675;SDS011;4876;42.656;23.292;2023-08-06T05:31:23;5.33;;;4.83;;
9675;SDS011;4876;42.656;23.292;2023-08-06T05:33:50;5.87;;;4.80;;
9675;SDS011;4876;42.656;23.292;2023-08-06T05:36:18;5.20;;;4.80;;
9675;SDS011;4876;42.656;23.292;2023-08-06T05:38:45;5.60;;;5.10;;
9675;SDS011;4876;42.656;23.292;2023-08-06T05:41:11;5.70;;;5.20;;
9675;SDS011;4876;42.656;23.292;2023-08-06T05:43:38;5.73;;;5.23;;
9675;SDS011;4876;42.656;23.292;2023-08-06T05:46:05;5.53;;;5.03;;
9675;SDS011;4876;42.656;23.292;2023-08-06T05:48:32;6.63;;;5.97;;
9675;SDS011;4876;42.656;23.292;2023-08-06T05:50:59;7.43;;;5.90;;
9675;SDS011;4876;42.656;23.292;2023-08-06T05:53:27;6.77;;;6.17;;
9675;SDS011;4876;42.656;23.292;2023-08-06T05:55:54;6.50;;;6.00;;
9675;SDS011;4876;42.656;23.292;2023-08-06T05:58:20;7.60;;;6.70;;
9675;SDS011;4876;42.656;23.292;2023-08-06T06:00:49;8.10;;;7.30;;
9675;SDS011;4876;42.656;23.292;2023-08-06T06:03:16;8.80;;;8.00;;
9675;SDS011;4876;42.656;23.292;2023-08-06T06:05:42;8.93;;;8.13;;
9675;SDS011;4876;42.656;23.292;2023-08-06T06:08:09;8.70;;;8.00;;
9675;SDS011;4876;42.656;23.292;2023-08-06T06:10:37;9.53;;;8.43;;
9675;SDS011;4876;42.656;23.292;2023-08-06T06:13:04;9.50;;;8.70;;
9675;SDS011;4876;42.656;23.292;2023-08-06T06:15:31;10.33;;;9.27;;
9675;SDS011;4876;42.656;23.292;2023-08-06T06:17:58;7.67;;;6.17;;
9675;SDS011;4876;42.656;23.292;2023-08-06T06:20:25;5.77;;;4.83;;
9675;SDS011;4876;42.656;23.292;2023-08-06T06:22:51;6.00;;;4.27;;
9675;SDS011;4876;42.656;23.292;2023-08-06T06:25:18;4.57;;;4.17;;
9675;SDS011;4876;42.656;23.292;2023-08-06T06:27:46;7.40;;;4.43;;
9675;SDS011;4876;42.656;23.292;2023-08-06T06:30:13;7.43;;;6.83;;
9675;SDS011;4876;42.656;23.292;2023-08-06T06:32:40;5.93;;;5.37;;
9675;SDS011;4876;42.656;23.292;2023-08-06T06:35:07;10.23;;;6.93;;
9675;SDS011;4876;42.656;23.292;2023-08-06T06:37:34;9.27;;;8.37;;
9675;SDS011;4876;42.656;23.292;2023-08-06T06:40:01;9.00;;;8.10;;
9675;SDS011;4876;42.656;23.292;2023-08-06T06:42:28;12.70;;;9.43;;
9675;SDS011;4876;42.656;23.292;2023-08-06T06:44:56;13.07;;;10.33;;
9675;SDS011;4876;42.656;23.292;2023-08-06T06:47:23;10.30;;;9.20;;
9675;SDS011;4876;42.656;23.292;2023-08-06T06:49:50;10.33;;;8.97;;
9675;SDS011;4876;42.656;23.292;2023-08-06T06:52:17;8.20;;;7.50;;
9675;SDS011;4876;42.656;23.292;2023-08-06T06:54:44;8.77;;;8.07;;
9675;SDS011;4876;42.656;23.292;2023-08-06T06:57:10;8.97;;;8.07;;
9675;SDS011;4876;42.656;23.292;2023-08-06T06:59:37;7.97;;;7.13;;
9675;SDS011;4876;42.656;23.292;2023-08-06T07:02:06;8.00;;;7.30;;
9675;SDS011;4876;42.656;23.292;2023-08-06T07:04:33;8.03;;;7.23;;
9675;SDS011;4876;42.656;23.292;2023-08-06T07:07:00;7.50;;;6.90;;
9675;SDS011;4876;42.656;23.292;2023-08-06T07:09:27;8.23;;;7.53;;
9675;SDS011;4876;42.656;23.292;2023-08-06T07:11:53;7.10;;;6.50;;
9675;SDS011;4876;42.656;23.292;2023-08-06T07:14:20;6.60;;;5.67;;
9675;SDS011;4876;42.656;23.292;2023-08-06T07:16:47;6.40;;;5.80;;
9675;SDS011;4876;42.656;23.292;2023-08-06T07:19:15;5.00;;;4.60;;
9675;SDS011;4876;42.656;23.292;2023-08-06T07:21:42;6.77;;;3.93;;
9675;SDS011;4876;42.656;23.292;2023-08-06T07:24:09;4.10;;;3.73;;
9675;SDS011;4876;42.656;23.292;2023-08-06T07:26:36;4.20;;;3.70;;
9675;SDS011;4876;42.656;23.292;2023-08-06T07:29:03;7.40;;;2.93;;
9675;SDS011;4876;42.656;23.292;2023-08-06T07:31:30;5.07;;;3.30;;
9675;SDS011;4876;42.656;23.292;2023-08-06T07:33:57;3.17;;;2.87;;
9675;SDS011;4876;42.656;23.292;2023-08-06T07:36:25;3.37;;;2.87;;
9675;SDS011;4876;42.656;23.292;2023-08-06T07:38:52;3.33;;;3.00;;
9675;SDS011;4876;42.656;23.292;2023-08-06T07:41:21;3.93;;;3.10;;
9675;SDS011;4876;42.656;23.292;2023-08-06T07:43:48;3.73;;;3.27;;
9675;SDS011;4876;42.656;23.292;2023-08-06T07:46:14;3.73;;;3.43;;
9675;SDS011;4876;42.656;23.292;2023-08-06T07:48:41;4.03;;;3.53;;
9675;SDS011;4876;42.656;23.292;2023-08-06T07:51:08;3.40;;;3.10;;
9675;SDS011;4876;42.656;23.292;2023-08-06T07:53:36;5.30;;;3.70;;
9675;SDS011;4876;42.656;23.292;2023-08-06T07:56:03;3.20;;;2.90;;
9675;SDS011;4876;42.656;23.292;2023-08-06T07:58:30;4.27;;;3.30;;
9675;SDS011;4876;42.656;23.292;2023-08-06T08:00:57;4.60;;;3.93;;
9675;SDS011;4876;42.656;23.292;2023-08-06T08:03:24;4.33;;;3.60;;
9675;SDS011;4876;42.656;23.292;2023-08-06T08:05:53;4.30;;;3.07;;
9675;SDS011;4876;42.656;23.292;2023-08-06T08:08:22;4.87;;;3.33;;
9675;SDS011;4876;42.656;23.292;2023-08-06T08:10:50;12.20;;;3.83;;
9675;SDS011;4876;42.656;23.292;2023-08-06T08:13:17;8.03;;;3.83;;
9675;SDS011;4876;42.656;23.292;2023-08-06T08:15:44;3.57;;;3.27;;
9675;SDS011;4876;42.656;23.292;2023-08-06T08:18:10;4.70;;;3.87;;
9675;SDS011;4876;42.656;23.292;2023-08-06T08:20:37;4.23;;;3.53;;
9675;SDS011;4876;42.656;23.292;2023-08-06T08:23:04;4.43;;;4.03;;
9675;SDS011;4876;42.656;23.292;2023-08-06T08:25:31;4.30;;;3.90;;
9675;SDS011;4876;42.656;23.292;2023-08-06T08:28:00;5.27;;;3.67;;
9675;SDS011;4876;42.656;23.292;2023-08-06T08:30:27;4.57;;;3.90;;
9675;SDS011;4876;42.656;23.292;2023-08-06T08:32:54;6.50;;;4.17;;
9675;SDS011;4876;42.656;23.292;2023-08-06T08:35:20;5.77;;;3.60;;
9675;SDS011;4876;42.656;23.292;2023-08-06T08:37:47;7.87;;;3.90;;
9675;SDS011;4876;42.656;23.292;2023-08-06T08:40:14;4.07;;;3.30;;
9675;SDS011;4876;42.656;23.292;2023-08-06T08:42:41;4.03;;;3.47;;
9675;SDS011;4876;42.656;23.292;2023-08-06T08:45:11;4.43;;;3.77;;
9675;SDS011;4876;42.656;23.292;2023-08-06T08:47:39;5.67;;;3.60;;
9675;SDS011;4876;42.656;23.292;2023-08-06T08:50:07;4.00;;;3.70;;
9675;SDS011;4876;42.656;23.292;2023-08-06T08:52:35;4.20;;;3.80;;
9675;SDS011;4876;42.656;23.292;2023-08-06T08:55:02;5.03;;;3.70;;
9675;SDS011;4876;42.656;23.292;2023-08-06T08:57:29;4.37;;;3.27;;
9675;SDS011;4876;42.656;23.292;2023-08-06T08:59:57;6.20;;;3.60;;
9675;SDS011;4876;42.656;23.292;2023-08-06T09:02:25;7.30;;;3.20;;
9675;SDS011;4876;42.656;23.292;2023-08-06T09:04:55;3.80;;;3.40;;
9675;SDS011;4876;42.656;23.292;2023-08-06T09:07:26;5.33;;;3.87;;
9675;SDS011;4876;42.656;23.292;2023-08-06T09:09:54;4.30;;;3.90;;
9675;SDS011;4876;42.656;23.292;2023-08-06T09:12:22;3.80;;;3.40;;
9675;SDS011;4876;42.656;23.292;2023-08-06T09:14:48;5.20;;;3.50;;
9675;SDS011;4876;42.656;23.292;2023-08-06T09:17:16;5.23;;;3.37;;
9675;SDS011;4876;42.656;23.292;2023-08-06T09:19:46;3.80;;;3.40;;
9675;SDS011;4876;42.656;23.292;2023-08-06T09:22:14;9.20;;;3.73;;
9675;SDS011;4876;42.656;23.292;2023-08-06T09:24:42;4.17;;;3.40;;
9675;SDS011;4876;42.656;23.292;2023-08-06T09:27:12;4.97;;;3.40;;
9675;SDS011;4876;42.656;23.292;2023-08-06T09:29:40;4.47;;;3.43;;
9675;SDS011;4876;42.656;23.292;2023-08-06T09:32:08;4.00;;;3.40;;
9675;SDS011;4876;42.656;23.292;2023-08-06T09:34:35;4.90;;;3.28;;
9675;SDS011;4876;42.656;23.292;2023-08-06T09:37:07;5.93;;;3.50;;
9675;SDS011;4876;42.656;23.292;2023-08-06T09:39:35;3.97;;;3.07;;
9675;SDS011;4876;42.656;23.292;2023-08-06T09:42:02;4.23;;;3.67;;
9675;SDS011;4876;42.656;23.292;2023-08-06T09:44:30;3.63;;;3.20;;
9675;SDS011;4876;42.656;23.292;2023-08-06T09:46:58;4.80;;;3.43;;
9675;SDS011;4876;42.656;23.292;2023-08-06T09:49:27;4.80;;;3.40;;
9675;SDS011;4876;42.656;23.292;2023-08-06T09:51:54;6.03;;;3.57;;
9675;SDS011;4876;42.656;23.292;2023-08-06T09:54:24;4.20;;;3.80;;
9675;SDS011;4876;42.656;23.292;2023-08-06T09:56:52;3.77;;;3.00;;
9675;SDS011;4876;42.656;23.292;2023-08-06T09:59:19;2.70;;;2.30;;
9675;SDS011;4876;42.656;23.292;2023-08-06T10:01:46;3.27;;;2.47;;
9675;SDS011;4876;42.656;23.292;2023-08-06T10:04:14;5.07;;;2.50;;
9675;SDS011;4876;42.656;23.292;2023-08-06T10:06:43;3.90;;;3.37;;
9675;SDS011;4876;42.656;23.292;2023-08-06T10:09:13;6.77;;;2.80;;
9675;SDS011;4876;42.656;23.292;2023-08-06T10:11:41;6.67;;;3.30;;
9675;SDS011;4876;42.656;23.292;2023-08-06T10:14:14;3.50;;;3.20;;
9675;SDS011;4876;42.656;23.292;2023-08-06T10:16:46;3.60;;;2.87;;
9675;SDS011;4876;42.656;23.292;2023-08-06T10:19:13;3.47;;;2.97;;
9675;SDS011;4876;42.656;23.292;2023-08-06T10:21:50;6.93;;;2.97;;
9675;SDS011;4876;42.656;23.292;2023-08-06T10:24:44;7.30;;;2.80;;
9675;SDS011;4876;42.656;23.292;2023-08-06T10:27:14;4.43;;;3.20;;
9675;SDS011;4876;42.656;23.292;2023-08-06T10:29:46;3.20;;;2.90;;
9675;SDS011;4876;42.656;23.292;2023-08-06T10:32:13;3.67;;;2.03;;
9675;SDS011;4876;42.656;23.292;2023-08-06T10:34:53;3.37;;;2.20;;
9675;SDS011;4876;42.656;23.292;2023-08-06T10:37:21;4.30;;;2.67;;
9675;SDS011;4876;42.656;23.292;2023-08-06T10:39:49;5.93;;;2.70;;
9675;SDS011;4876;42.656;23.292;2023-08-06T10:42:21;3.50;;;3.00;;
9675;SDS011;4876;42.656;23.292;2023-08-06T10:47:37;2.80;;;2.60;;
9675;SDS011;4876;42.656;23.292;2023-08-06T10:50:05;2.97;;;2.70;;
9675;SDS011;4876;42.656;23.292;2023-08-06T10:52:33;2.90;;;2.70;;
9675;SDS011;4876;42.656;23.292;2023-08-06T10:55:00;4.00;;;2.97;;
9675;SDS011;4876;42.656;23.292;2023-08-06T10:57:28;3.73;;;2.83;;
9675;SDS011;4876;42.656;23.292;2023-08-06T10:59:55;5.03;;;2.93;;
9675;SDS011;4876;42.656;23.292;2023-08-06T11:02:22;4.67;;;3.23;;
9675;SDS011;4876;42.656;23.292;2023-08-06T11:04:49;3.80;;;2.80;;
9675;SDS011;4876;42.656;23.292;2023-08-06T11:07:16;3.27;;;2.97;;
9675;SDS011;4876;42.656;23.292;2023-08-06T11:09:42;9.37;;;3.00;;
9675;SDS011;4876;42.656;23.292;2023-08-06T11:12:09;3.57;;;2.70;;
9675;SDS011;4876;42.656;23.292;2023-08-06T11:14:38;2.97;;;2.67;;
9675;SDS011;4876;42.656;23.292;2023-08-06T11:17:05;3.10;;;2.57;;
9675;SDS011;4876;42.656;23.292;2023-08-06T11:19:32;3.60;;;3.03;;
9675;SDS011;4876;42.656;23.292;2023-08-06T11:22:00;3.03;;;2.70;;
9675;SDS011;4876;42.656;23.292;2023-08-06T11:24:27;5.07;;;3.20;;
9675;SDS011;4876;42.656;23.292;2023-08-06T11:26:54;8.97;;;3.90;;
9675;SDS011;4876;42.656;23.292;2023-08-06T11:29:20;10.37;;;4.00;;
9675;SDS011;4876;42.656;23.292;2023-08-06T11:31:49;8.80;;;3.73;;
9675;SDS011;4876;42.656;23.292;2023-08-06T11:34:16;5.00;;;3.53;;
9675;SDS011;4876;42.656;23.292;2023-08-06T11:36:43;7.17;;;3.47;;
9675;SDS011;4876;42.656;23.292;2023-08-06T11:39:10;8.30;;;3.97;;
9675;SDS011;4876;42.656;23.292;2023-08-06T11:41:37;4.90;;;3.90;;
9675;SDS011;4876;42.656;23.292;2023-08-06T11:44:05;6.63;;;4.70;;
9675;SDS011;4876;42.656;23.292;2023-08-06T11:49:18;6.03;;;4.30;;
9675;SDS011;4876;42.656;23.292;2023-08-06T11:51:47;9.07;;;4.87;;
9675;SDS011;4876;42.656;23.292;2023-08-06T11:54:14;4.73;;;4.27;;
9675;SDS011;4876;42.656;23.292;2023-08-06T11:56:40;6.50;;;4.13;;
9675;SDS011;4876;42.656;23.292;2023-08-06T11:59:08;4.00;;;3.60;;
9675;SDS011;4876;42.656;23.292;2023-08-06T12:01:35;6.33;;;3.50;;
9675;SDS011;4876;42.656;23.292;2023-08-06T12:04:05;5.27;;;4.10;;
9675;SDS011;4876;42.656;23.292;2023-08-06T12:06:41;4.83;;;4.13;;
9675;SDS011;4876;42.656;23.292;2023-08-06T12:09:08;5.03;;;3.70;;
9675;SDS011;4876;42.656;23.292;2023-08-06T12:11:37;4.47;;;4.00;;
9675;SDS011;4876;42.656;23.292;2023-08-06T12:14:03;6.43;;;4.10;;
9675;SDS011;4876;42.656;23.292;2023-08-06T12:16:30;5.77;;;4.40;;
9675;SDS011;4876;42.656;23.292;2023-08-06T12:18:57;4.67;;;4.27;;
9675;SDS011;4876;42.656;23.292;2023-08-06T12:21:25;5.83;;;4.33;;
9675;SDS011;4876;42.656;23.292;2023-08-06T12:23:52;6.03;;;4.83;;
9675;SDS011;4876;42.656;23.292;2023-08-06T12:26:19;6.07;;;4.80;;
9675;SDS011;4876;42.656;23.292;2023-08-06T12:28:46;4.90;;;4.50;;
9675;SDS011;4876;42.656;23.292;2023-08-06T12:31:14;6.07;;;4.23;;
9675;SDS011;4876;42.656;23.292;2023-08-06T12:33:41;5.37;;;4.87;;
9675;SDS011;4876;42.656;23.292;2023-08-06T12:36:08;5.53;;;4.93;;
9675;SDS011;4876;42.656;23.292;2023-08-06T12:38:36;5.40;;;4.90;;
9675;SDS011;4876;42.656;23.292;2023-08-06T12:41:03;5.43;;;4.50;;
9675;SDS011;4876;42.656;23.292;2023-08-06T12:43:29;6.10;;;5.13;;
9675;SDS011;4876;42.656;23.292;2023-08-06T12:45:56;5.17;;;4.50;;
9675;SDS011;4876;42.656;23.292;2023-08-06T12:48:23;6.10;;;4.30;;
9675;SDS011;4876;42.656;23.292;2023-08-06T12:50:50;6.17;;;5.03;;
9675;SDS011;4876;42.656;23.292;2023-08-06T12:53:17;5.70;;;4.57;;
9675;SDS011;4876;42.656;23.292;2023-08-06T12:55:47;4.93;;;4.53;;
9675;SDS011;4876;42.656;23.292;2023-08-06T12:58:14;5.87;;;5.37;;
9675;SDS011;4876;42.656;23.292;2023-08-06T13:00:41;6.10;;;4.87;;
9675;SDS011;4876;42.656;23.292;2023-08-06T13:03:07;5.23;;;4.63;;
9675;SDS011;4876;42.656;23.292;2023-08-06T13:05:34;5.03;;;4.20;;
9675;SDS011;4876;42.656;23.292;2023-08-06T13:08:02;8.37;;;5.23;;
9675;SDS011;4876;42.656;23.292;2023-08-06T13:10:30;4.90;;;4.50;;
9675;SDS011;4876;42.656;23.292;2023-08-06T13:12:58;5.00;;;4.60;;
9675;SDS011;4876;42.656;23.292;2023-08-06T13:15:25;5.95;;;5.13;;
9675;SDS011;4876;42.656;23.292;2023-08-06T13:17:52;5.15;;;4.65;;
9675;SDS011;4876;42.656;23.292;2023-08-06T13:20:19;5.50;;;4.88;;
9675;SDS011;4876;42.656;23.292;2023-08-06T13:22:46;6.30;;;4.80;;
9675;SDS011;4876;42.656;23.292;2023-08-06T13:25:15;5.57;;;4.60;;
9675;SDS011;4876;42.656;23.292;2023-08-06T13:27:42;4.95;;;4.50;;
9675;SDS011;4876;42.656;23.292;2023-08-06T13:30:12;5.50;;;4.90;;
9675;SDS011;4876;42.656;23.292;2023-08-06T13:32:39;6.23;;;4.43;;
9675;SDS011;4876;42.656;23.292;2023-08-06T13:35:06;7.60;;;4.63;;
9675;SDS011;4876;42.656;23.292;2023-08-06T13:37:33;5.97;;;4.70;;
9675;SDS011;4876;42.656;23.292;2023-08-06T13:40:00;9.43;;;5.27;;
9675;SDS011;4876;42.656;23.292;2023-08-06T13:42:27;6.50;;;5.03;;
9675;SDS011;4876;42.656;23.292;2023-08-06T13:44:54;5.97;;;4.63;;
9675;SDS011;4876;42.656;23.292;2023-08-06T13:47:28;9.47;;;4.77;;
9675;SDS011;4876;42.656;23.292;2023-08-06T13:49:55;8.77;;;4.43;;
9675;SDS011;4876;42.656;23.292;2023-08-06T13:52:22;5.87;;;4.57;;
9675;SDS011;4876;42.656;23.292;2023-08-06T13:54:49;5.23;;;4.73;;
9675;SDS011;4876;42.656;23.292;2023-08-06T13:57:15;6.30;;;4.60;;
9675;SDS011;4876;42.656;23.292;2023-08-06T13:59:43;5.47;;;4.40;;
9675;SDS011;4876;42.656;23.292;2023-08-06T14:02:10;4.97;;;4.20;;
9675;SDS011;4876;42.656;23.292;2023-08-06T14:04:38;9.23;;;4.60;;
9675;SDS011;4876;42.656;23.292;2023-08-06T14:07:05;7.00;;;4.27;;
9675;SDS011;4876;42.656;23.292;2023-08-06T14:09:32;8.77;;;4.37;;
9675;SDS011;4876;42.656;23.292;2023-08-06T14:11:59;5.15;;;4.40;;
9675;SDS011;4876;42.656;23.292;2023-08-06T14:14:26;4.83;;;4.33;;
9675;SDS011;4876;42.656;23.292;2023-08-06T14:16:53;6.47;;;4.55;;
9675;SDS011;4876;42.656;23.292;2023-08-06T14:19:20;10.27;;;4.43;;
9675;SDS011;4876;42.656;23.292;2023-08-06T14:21:48;18.58;;;5.22;;
9675;SDS011;4876;42.656;23.292;2023-08-06T14:24:15;5.50;;;4.35;;
9675;SDS011;4876;42.656;23.292;2023-08-06T14:26:42;4.43;;;4.05;;
9675;SDS011;4876;42.656;23.292;2023-08-06T14:29:09;5.53;;;4.15;;
9675;SDS011;4876;42.656;23.292;2023-08-06T14:31:36;7.38;;;3.97;;
9675;SDS011;4876;42.656;23.292;2023-08-06T14:34:02;4.80;;;4.28;;
9675;SDS011;4876;42.656;23.292;2023-08-06T14:36:30;6.00;;;4.33;;
9675;SDS011;4876;42.656;23.292;2023-08-06T14:38:58;5.50;;;4.28;;
9675;SDS011;4876;42.656;23.292;2023-08-06T14:41:25;4.38;;;3.70;;
9675;SDS011;4876;42.656;23.292;2023-08-06T14:43:51;6.00;;;3.65;;
9675;SDS011;4876;42.656;23.292;2023-08-06T14:46:19;3.47;;;3.17;;
9675;SDS011;4876;42.656;23.292;2023-08-06T14:48:46;3.17;;;2.88;;
9675;SDS011;4876;42.656;23.292;2023-08-06T14:51:13;3.25;;;2.60;;
9675;SDS011;4876;42.656;23.292;2023-08-06T14:53:40;2.80;;;2.30;;
9675;SDS011;4876;42.656;23.292;2023-08-06T14:56:08;5.55;;;2.63;;
9675;SDS011;4876;42.656;23.292;2023-08-06T14:58:34;3.45;;;2.55;;
9675;SDS011;4876;42.656;23.292;2023-08-06T15:01:01;2.50;;;2.30;;
9675;SDS011;4876;42.656;23.292;2023-08-06T15:03:28;5.88;;;2.53;;
9675;SDS011;4876;42.656;23.292;2023-08-06T15:05:56;4.55;;;2.70;;
9675;SDS011;4876;42.656;23.292;2023-08-06T15:08:23;6.85;;;2.55;;